International TAF

Brunei, China, Hong Kong, Malaysia, Philippines, Taiwan

The availability of aerodrome forecasts from overseas locations is dependent on the regular international exchange of data. Some locations may at times be absent. If this problem persists, please advise webav@bom.gov.au

 back to top

ZSPD 16/01/2018 UTC

TAF ZSPD 161521Z 1618/1718 33004MPS 3500 BR BKN008 TX13/1706Z
TN07/1621Z BECMG 1701/1702 BKN011 TEMPO 1619/1701 0700 FG BKN002

WIDD 16/01/2018 UTC

TAF WIDD 161100Z 1612/1712 02007KT 9000 SCT014
PROB30 TEMPO 1612/1614 6000 -RA

WAMM 16/01/2018 UTC

TAF WAMM 161700Z 1618/1724 02002KT 9999 SCT022
PROB40 TEMPO 1618/1622 7000 -RA SCT018
BECMG 1623/1701 25008KT
PROB40 TEMPO 1706/1710 10003KT 6000 -RA FEW017CB SCT018

WBSB 16/01/2018 UTC

TAF WBSB 161700Z 1618/1800 20003KT 9999 FEW014 FEW015CB
TEMPO 1618/1620 7000 -SHRA -TSRA
BECMG 1704/1706 28010KT FEW016 FEW017CB

WBKK 16/01/2018 UTC

TAF WBKK 161700Z 1618/1718 11005KT 9999 FEW014
TEMPO 1618/1622 5000 TSRA FEW013 FEW015CB SCT040

WBGG 16/01/2018 UTC

TAF WBGG 161700Z 1618/1718 27007KT 9999 SCT020
TEMPO 1621/1623 0800 FG SCT000
TEMPO 1704/1708 3000 TSRA FEW015CB BKN018

VHHH 16/01/2018 UTC

TAF VHHH 161100Z 1612/1718 VRB05KT 7000 FEW040 TX24/1706Z
TN16/1623Z TEMPO 1614/1620 02010KT BECMG 1701/1703 29010KT TEMPO
1702/1710 4000 HZ BECMG 1709/1711 06010KT

VMMC 16/01/2018 UTC

TAF VMMC 161100Z 1612/1718 VRB03KT 9000 NSC
TEMPO 1620/1704 01010KT
TEMPO 1622/1710 4000 HZ

ZGSZ 16/01/2018 UTC

TAF ZGSZ 161503Z 1618/1718 06003MPS 5000 BR FEW040 TX22/1706Z
TN13/1623Z BECMG 1702/1703 27004MPS BECMG 1713/1714 09004MPS

RCTP 16/01/2018 UTC

TAF RCTP 161700Z 1618/1724 16005KT 8000 FEW015 BKN032
TEMPO 1620/1701 35005KT 3500 BR FEW005 BKN008 BKN030
BECMG 1701/1703 03013KT
TEMPO 1705/1710 06020KT
BECMG 1710/1712 07015KT FEW012 BKN024 BKN040
TEMPO 1712/1718 08020KT 3500 BR FEW008 BKN013 BKN035

RCKH 16/01/2018 UTC

TAF RCKH 161700Z 1618/1724 35005KT 8000 FEW015 BKN032
TEMPO 1620/1701 07005KT 4000 HZ
BECMG 1703/1705 27008KT
TEMPO 1708/1713 31010KT
BECMG 1713/1715 35005KT
TEMPO 1719/1724 3500 HZ

ZGGG 16/01/2018 UTC

TAF ZGGG 161501Z 1618/1718 36003MPS 5000 BR SCT040 TX23/1707Z
TN12/1622Z

ZBAA 16/01/2018 UTC

TAF ZBAA 161520Z 1618/1718 34004MPS CAVOK TX03/1707Z TNM06/21Z

ZSSS 16/01/2018 UTC

TAF ZSSS 161522Z 1618/1718 32004MPS 1500 BR BKN008 TX14/1706Z
TN08/1621Z BECMG 1620/1621 0700 FG BKN003 BECMG 1700/1701 2000 BR
BKN010 BECMG 1701/1702 3500 BKN015

ZBTJ 16/01/2018 UTC

TAF ZBTJ 161514Z 1618/1718 33004MPS 5000 HZ NSC TX05/1707Z
TNM06/23Z

ZBYN 16/01/2018 UTC

TAF COR ZBYN 161515Z 1618/1718 09004MPS 5000 HZ NSC TX01/1707Z
TNM08/22Z

ZSHC 16/01/2018 UTC

TAF ZSHC 161511Z 1618/1718 06003MPS 3000 BR NSC TX14/1706Z
TN07/1621Z
BECMG 1621/1622 2300 BR BECMG 1700/1701 3000 BR

ZSOF 16/01/2018 UTC

TAF ZSOF 161501Z 1618/1718 12003MPS 0200 FG VV001 TX10/1707Z
TN00/1622Z BECMG 1702/1703 0500 FG BKN002 BECMG 1704/1705 0800 FG
BKN005 BECMG 1706/1707 1500 BR NSC

ZWWW 16/01/2018 UTC

TAF ZWWW 161504Z 1618/1718 18002MPS 1600 BR NSC TXM08/08Z TNM16/23Z
BECMG 1622/1623 1000 BR TEMPO 1700/1705 0700 FZFG BKN011 BECMG
1706/1707
36002MPS 1600 BR BECMG 1712/1713 18002MPS

ZYTL 16/01/2018 UTC

TAF ZYTL 161506Z 1618/1718 21004MPS 3000 BR NSC TX03/1706Z
TNM03/21Z TEMPO 1618/1624 2000 BR

RPLL 16/01/2018 UTC

TAF RPLL 161700Z 1618/1724 07006KT 9999 FEW023 SCT100 TX30/1706Z
TN24/1621Z TEMPO 1618/1624 VRB02KT FEW023 BKN100
TEMPO 1706/1712 09006KT 9000 -SHRA SCT023 OVC090

RPVM 16/01/2018 UTC

TAF RPVM 161700Z 1618/1724 04008KT 9999 FEW020 BKN100
TEMPO 1618/1624 05010KT 9000 -RA FEW020 OVC090
TEMPO 1700/ 1706 08008KT FEW020 BKN090

RPMZ 16/01/2018 UTC

TAF RPMZ 161700Z 1618/1718 27004KT 9999 FEW017 BKN090
TEMPO 1618/1624 00000KT 9000 -SHRA FEW016CB SCT017 BKN090

Australian International

The availability of aerodrome forecasts from overseas locations is dependent on the regular international exchange of data. Some locations may at times be absent. If this problem persists, please advise webav@bom.gov.au

 back to top

YMML 16/01/2018 UTC

TAF YMML 161705Z 1618/1724
28007KT CAVOK
FM162100 VRB05KT CAVOK
BECMG 1704/1706 19010KT CAVOK
FM171100 VRB05KT CAVOK
FM171600 36010KT CAVOK
FM172000 36018G28KT CAVOK
RMK FM172000 MOD TURB BLW 5000FT
T 12 15 23 28 Q 1018 1019 1019 1017

YSSY 16/01/2018 UTC

TAF YSSY 161636Z 1618/1724
22015KT 9999 SCT030 SCT050
FM162300 17018KT 9999 FEW035
FM171000 22008KT 9999 FEW030
FM171600 29008KT CAVOK
RMK
T 19 20 23 24 Q 1017 1019 1019 1018

YBBN 16/01/2018 UTC

TAF YBBN 161700Z 1618/1724
19005KT 9999 FEW025
FM162200 16010KT CAVOK
FM170100 11012KT CAVOK
FM170800 14010KT 9999 FEW025
FM171400 19005KT 9999 FEW020
FM172300 16010KT CAVOK
RMK
T 19 21 25 27 Q 1015 1017 1017 1016

YSCB 16/01/2018 UTC

TAF YSCB 161706Z 1618/1718
15005KT 9999 FEW020
FM162200 15008KT CAVOK
FM170200 28008KT CAVOK
BECMG 1708/1709 07010KT CAVOK
FM171400 13005KT 9999 FEW015
RMK
T 09 13 21 27 Q 1019 1021 1020 1019

YBCS 16/01/2018 UTC

TAF YBCS 161712Z 1618/1718
17010KT 9999 -SHRA SCT023 BKN040
FM162300 14015KT 9999 -SHRA SCT025 SCT045
FM170800 17010KT 9999 -SHRA SCT023 BKN040
TEMPO 1618/1624 3000 SHRA BKN015
INTER 1700/1718 3000 SHRA BKN018
PROB30 TEMPO 1618/1624 VRB15G25KT 1000 TSRA BKN012 SCT020CB
RMK
T 24 25 27 29 Q 1007 1010 1011 1010

YBAS 16/01/2018 UTC

TAF YBAS 161120Z 1612/1712
12007KT CAVOK
FM170000 10014KT CAVOK
RMK
T 27 24 21 21 Q 1010 1011 1010 1011

YBMA 16/01/2018 UTC

TAF YBMA 161535Z 1618/1706
04010KT CAVOK
PROB30 TEMPO 1704/1706 VRB20G30KT 1000 TSRA BKN014 SCT070CB
RMK
T 26 27 31 34 Q 1008 1010 1012 1010

YPAD 16/01/2018 UTC

TAF YPAD 161106Z 1612/1718
13010KT CAVOK
FM161800 05008KT CAVOK
FM170100 24010KT CAVOK
FM171000 14010KT CAVOK
RMK
T 23 21 21 23 Q 1015 1015 1014 1015

YPDN 16/01/2018 UTC

TAF YPDN 161122Z 1612/1718
29005KT 9999 SCT020
FM170300 28008KT 9999 SCT035
FM171200 03005KT 9999 SCT020
TEMPO 1613/1614 VRB20G35KT 1000 TSRA BKN010 SCT020CB
PROB30 TEMPO 1705/1710 VRB20G35KT 1000 TSRA BKN010 SCT020CB
RMK
T 29 27 27 26 Q 1005 1006 1004 1005

YPTN 16/01/2018 UTC

TAF YPTN 161121Z 1612/1712
14005KT 9999 SCT045
FM161800 32005KT 9999 SCT020
FM170000 05006KT 9999 SCT040
PROB30 TEMPO 1703/1712 VRB20G35KT 1000 TSRA BKN015 SCT030CB
RMK
T 27 26 25 25 Q 1005 1006 1005 1006

YPPH 16/01/2018 UTC

TAF AMD YPPH 161712Z 1618/1724
36006KT 9999 -DZ BKN008
FM162100 35008KT 8000 -DZ BKN008
FM170600 25012KT 9999 -DZ BKN018
FM171200 21012KT 9999 -DZ BKN012
FM172100 17010KT 9999 BKN020
TEMPO 1621/1706 2000 DZ BKN005
INTER 1706/1721 6000 -DZ BKN010
RMK
T 22 22 23 23 Q 1004 1004 1005 1006

YPLM 16/01/2018 UTC

TAF YPLM 161713Z 1618/1718
22012KT 9999 -SHRA SCT080
FM170000 16008KT 9999 -SHRA SCT080
FM170300 05008KT CAVOK
FM170600 28012KT CAVOK
FM170900 23016KT CAVOK
RMK
T 26 25 29 33 Q 1007 1006 1007 1006

YCAR 16/01/2018 UTC

TAF YCAR 161426Z 1614/1620
20014KT 9999 BKN014
FM161800 20008KT 9999 BKN018
RMK
T 25 24 24 Q 1008 1007 1007

YPCC 16/01/2018 UTC

TAF YPCC 161712Z 1618/1718
20010KT 9999 -SHRA SCT025
INTER 1704/1710 3000 SHRA BKN010
RMK
T 26 26 26 28 Q 1008 1006 1007 1008

YPPD 16/01/2018 UTC

TAF YPPD 161713Z 1618/1718
20005KT 9999 -SHRA SCT020
FM170200 30010KT 9999 SCT030
PROB30 INTER 1620/1703 VRB25G45KT 2000 TSRA BKN010 FEW040CB
RMK
T 28 26 29 30 Q 1005 1005 1006 1006

YBTL 16/01/2018 UTC

TAF AMD YBTL 161704Z 1617/1712
12012KT 9999 FEW015 SCT030
FM170000 12018KT 9999 -SHRA FEW020 BKN035
FM170900 12012KT 9999 -SHRA FEW015 BKN030
INTER 1703/1712 3000 SHRA BKN010
RMK
T 26 26 29 29 Q 1009 1010 1012 1012

YMHB 16/01/2018 UTC

TAF YMHB 161707Z 1618/1718
30008KT CAVOK
FM170000 14012KT CAVOK
FM170900 06009KT 9999 FEW025
RMK
T 11 14 17 20 Q 1019 1020 1019 1017

YPXM 16/01/2018 UTC

TAF AMD YPXM 161712Z 1618/1718
28010KT 9999 -SHRA BKN012
FM170900 28014KT 9999 BKN014
RMK
T 24 24 25 27 Q 1007 1006 1007 1008

New Zealand

The availability of aerodrome forecasts from overseas locations is dependent on the regular international exchange of data. Some locations may at times be absent. If this problem persists, please advise webav@bom.gov.au

 back to top

NZAA 16/01/2018 UTC

TAF NZAA 161713Z 1618/1718 04018G30KT 9999 -SHRA SCT020 BKN030
TEMPO 1618/1712 6000 SHRA BKN012
BECMG 1619/1621 02028G40KT
TEMPO 1712/1718 4000 RA BKN008 FEW020CB

NZWN 16/01/2018 UTC

TAF NZWN 161713Z 1618/1718 36015G25KT 9999 SCT030
BECMG 1706/1708 36025G35KT
TEMPO 1710/1718 6000 RA

NZCH 16/01/2018 UTC

TAF NZCH 161710Z 1618/1718 08008KT CAVOK
FM170000 08015G25KT 9999 -RA SCT050
TEMPO 1702/1707 6000 RA
FM171200 06012KT 9999 FEW050

YLHI 16/01/2018 UTC

TAF YLHI 161708Z 1618/1718
23025G35KT 9999 -SHRA SCT030 BKN050
FM162200 23025G35KT 9999 -SHRA SCT020 BKN030
INTER 1618/1718 4000 SHRA BKN015
RMK FM161800 MOD/SEV TURB BLW 5000FT
T 20 22 23 23 Q 1007 1009 1009 1009

YSNF 16/01/2018 UTC

TAF YSNF 161708Z 1618/1718
32006KT 9999 -SHRA FEW020
FM162000 30012KT 9999 -SHRA FEW010 SCT020
FM170800 30006KT 9999 -SHRA SCT010 BKN020
RMK
T 21 24 24 25 Q 1009 1011 1012 1011

Indonesia, Malaysia, Myanmar, Singapore, Thailand, Vietnam

The availability of aerodrome forecasts from overseas locations is dependent on the regular international exchange of data. Some locations may at times be absent. If this problem persists, please advise webav@bom.gov.au

 back to top

WADA

TAF not available.

WAAA 16/01/2018 UTC

TAF COR WAAA 161700Z 1618/1800 09004KT 6000 -RA SCT019 BKN100
BECMG 1701/1703 30008KT
BECMG 1711/1713 10004KT

WIII 16/01/2018 UTC

TAF WIII 161700Z 1618/1800 26006KT 7000 SCT020
BECMG 1701/1703 9999

WIHH 16/01/2018 UTC

TAF WIHH 161700Z 1618/1718 25006KT 7000 SCT022
BECMG 1701/1703 28012KT 8000 SCT018
TEMPO 1705/1709 5000 -RA FEW018CB SCT015

WIMM 16/01/2018 UTC

TAF WIMM 161700Z 1618/1718 22004KT 2500 BR SCT018
BECMG 1702/1704 35010KT 9000 NSW
BECMG 1710/1712 VRB05KT 4500 HZ FEW016CB FEW017

WIPP 16/01/2018 UTC

TAF WIPP 161700Z 1618/1718 04005KT 6000 SCT012
TEMPO 1620/1624 3000 BR
BECMG 1700/1702 31008KT 9999

WIKD

TAF not available.

WARR 16/01/2018 UTC

TAF WARR 161700Z 1618/1718 28005KT 6000 SCT020
TEMPO 1620/1700 5000 HZ
BECMG 1701/1703 26010KT 9999 NSW
TEMPO 1706/1710 SCT020CB

WADD 16/01/2018 UTC

TAF WADD 161700Z 1618/1718 29012KT 9999 FEW015CB
TEMPO 1618/1622 5000 RA FEW013CB BKN015
TEMPO 1712/1716 5000 RA FEW013CB BKN015

WRRA

TAF not available.

WALL 16/01/2018 UTC

TAF WALL 161100Z 1612/1718 23005KT 9000 FEW020 BECMG 1616/1618 SCT018

WSSS 16/01/2018 UTC

TAF WSSS 161700Z 1618/1800 36008KT 9999 FEW015 BKN140

WSAP 16/01/2018 UTC

TAF WSAP 161700Z 1618/1800 36008KT 9999 FEW015 BKN140

WMKK 16/01/2018 UTC

TAF WMKK 161700Z 1618/1800 06005KT 9999 FEW030 SCT140 BKN280
PROB30 TEMPO 1707/1711 4000 TSRA FEW015CB SCT018

WMSA 16/01/2018 UTC

TAF WMSA 161700Z 1618/1718 05005KT 9999 SCT026 SCT140 BKN270
PROB30 TEMPO 1707/1711 4000 TSRA FEW015CB SCT018

WMKP 16/01/2018 UTC

TAF WMKP 161700Z 1618/1718 04005KT 9000 FEW025 SCT140 BKN270

WMKJ 16/01/2018 UTC

TAF WMKJ 161700Z 1618/1718 05005KT 9999 FEW023 SCT140 BKN280

WMKD 16/01/2018 UTC

TAF WMKD 161700Z 1618/1718 36005KT 9999 FEW024 SCT160 BKN280

WMKB 16/01/2018 UTC

TAF WMKB 161700Z 1618/1718 06005KT 8000 FEW023
TEMPO 1713/1716 6000 -TSRA SCT022

VTBD 16/01/2018 UTC

TAF VTBD 161100Z 1612/1718 34005KT 9999 FEW040
BECMG 1702/1704 05008KT
BECMG 1716/1718 34005KT

VTBS 16/01/2018 UTC

TAF VTBS 161100Z 1612/1718 08005KT 9999 FEW040
BECMG 1618/1620 34005KT 8000
BECMG 1702/1704 06008KT 9999
BECMG 1716/1718 35005KT

VTBU 16/01/2018 UTC

TAF VTBU 161100Z 1612/1712 30006KT 3000 HZ FEW020
BECMG 1619/1621 35004KT 2000 BR
BECMG 1702/1704 04006KT 5000 HZ

VTCC 16/01/2018 UTC

TAF VTCC 161100Z 1612/1718 19005KT 9999 FEW035
BECMG 1621/1623 5000 BR
BECMG 1702/1704 9999 NSW

VTSP 16/01/2018 UTC

TAF VTSP 161100Z 1612/1718 VRB02KT 9000 FEW020 SCT100
BECMG 1702/1704 08008KT 9999 FEW020
TEMPO 1708/1712 VRB10G20KT 5000 TSRA FEW018CB SCT020 BKN100

VTSS 16/01/2018 UTC

TAF VTSS 161100Z 1612/1712 06005KT 9999 FEW020 SCT100

VVTS 16/01/2018 UTC

TAF VVTS 161100Z 1612/1718 VRB03KT 8000 SCT017 SCT040
BECMG 1621/1622 2000 BR
BECMG 1700/1701 07010KT 9999 NSW
BECMG 1707/1708 15008KT

VDPP 16/01/2018 UTC

TAF VDPP 161100Z 1612/1706 03006KT 9999 SCT017

VVNB 16/01/2018 UTC

TAF VVNB 161100Z 1612/1712 04005KT 3200 BR SCT013 BKN016
TEMPO 1612/1616 2000 -DZ BR SCT010 BKN016
TEMPO 1621/1701 1400 -DZ BR SCT005 BKN013
BECMG 1705/1706 6000 NSW

VYYY 16/01/2018 UTC

TAF VYYY 161100Z 1612/1712 22004KT 7000 SCT015 BKN100
TEMPO 1612/1618 1618 6000 HZ
BECMG 1623/1701 2000 BR

South America

The availability of aerodrome forecasts from overseas locations is dependent on the regular international exchange of data. Some locations may at times be absent. If this problem persists, please advise webav@bom.gov.au

 back to top

SAEZ 16/01/2018 UTC

TAF SAEZ 161100Z 1612/1712 VRB03KT 9999 FEW020 TX30/1618Z
TN17/1708Z
BECMG 1613/1615 07010KT CAVOK
BECMG 1707/1709 04010KT 9999 SCT020 BKN050 PROB30
TEMPO 1710/1712 8000 SHRA BKN020 FEW040CB BKN060

SAVC 16/01/2018 UTC

TAF SAVC 161100Z 1612/1712 VRB05KT CAVOK TX28/1619Z TN15/1711Z BECMG
1614/1616 27020G35KT BECMG 1704/1706 27015KT

SCIE 16/01/2018 UTC

TAF SCIE 161010Z 1612/1712 21005KT 9999 SCT045 TX21/1619Z
TN13/1710Z
BECMG 1612/1614 22012KT CAVOK
BECMG 1618/1620 24016KT
BECMG 1700/1702 21010KT
BECMG 1708/1710 16005KT

SACO 16/01/2018 UTC

TAF SACO 161100Z 1612/1712 36005KT 9999 FEW030 TX31/1618Z
TN18/1710Z
BECMG 1614/1617 05010KT 9999 SCT030 FEW040CB
BECMG 1703/1706 18015KT 7000 TSRA BKN025 FEW040CB

SCIP 16/01/2018 UTC

TAF SCIP 161033Z 1612/1712 10005KT 9999 SCT025 BKN100 TX26/1620Z
TN18/1711Z
TEMPO 1612/1615 03010KT 8000 -SHRA BKN025 SCT040
BECMG 1616/1618 09010KT SCT025 SCT250
TEMPO 1621/1703 03005KT 8000 -SHRA BKN020 SCT050
BECMG 1704/1706 10005KT

SAZM 16/01/2018 UTC

TAF SAZM 161100Z 1612/1712 30003KT CAVOK TX26/1619Z TN17/1709Z
BECMG 1614/1616 08010KT 9999 SCT020
BECMG 1618/1620 07015G25KT 9999 SCT030
BECMG 1704/1706 36005KT 8000 SCT015 PROB40 1707/1711 34003KT
0600 FG BKN008

SAME 16/01/2018 UTC

TAF SAME 161100Z 1612/1712 14005KT 9999 VCTS SCT040 FEW040CB
TX27/1620Z TN18/1710Z BECMG 1621/1623 14010KT 6000 TSRA BKN040
FEW050CB

SUMU 16/01/2018 UTC

TAF SUMU 161140Z 1612/1712 04010KT 9999 FEW040 TX30/1618Z
TN18/1709Z
BECMG 1615/1618 12010KT
BECMG 1700/1704 02015G25KT 9999 SCT030

SAZN 16/01/2018 UTC

TAF SAZN 161100Z 1612/1712 VRB03KT CAVOK TX31/1619Z TN17/1709Z
BECMG 1619/1621 24010KT BECMG 1701/1703 25015G25KT BECMG 1706/1709
20015KT

SCTE 16/01/2018 UTC

TAF SCTE 161034Z 1612/1712 VRB02KT 1500 BR OVC008
TX20/1619Z TN11/1710Z
BECMG 1613/1615 17008KT 9999 NSW SCT040
BECMG 1619/1621 24008KT
BECMG 1621/1623 SCT025 BKN060
BECMG 1700/1702 BKN020
TEMPO 1703/1708 35006KT 5000 -RA OVC015

SCCI 16/01/2018 UTC

TAF SCCI 161050Z 1612/1712 30015KT 9999 FEW015 SCT030 TN08/1709Z
TX14/1618Z
BECMG 1612/1614 27020G35KT FEW040
TEMPO 16NSAM EDDZYNYX EGZZNSPI EHZZNTXX EUECYIYN KDZZNANX
KDZZNAXX KDZZNAYY MMMXYNYX MPLBDMYX MPTOYNYX MPZZNANX
MROCYOYX MUHAYNYX NTAAYNYX 161130 SPIMYNYD (A0261/18 NOTAMR
A0256/18 Q)SPIM/QMRLT/IV/NBO/A/000/999/ A)SPQT B)1801161130
C)1801161330 EST E)RWY 600 17006KT 9999 SCT015 BKN100

SAWG 16/01/2018 UTC

TAF SAWG 161100Z 1612/1712 29005KT 9999 FEW030 BKN070 TX19/1619Z
TN07/1711Z
BECMG 1614/1616 25025G35KT
BECMG 1708/1710 02020KT 6000 SHRA SCT020 OVC050

SAAR 16/01/2018 UTC

TAF SAAR 161100Z 1612/1712 05010KT CAVOK TX33/1619Z TN21/1709Z
BECMG 1618/1620 09010KT
BECMG 1708/1709 20010KT 9999 SCT020 BKN070 PROB30
TEMPO 1710/1712 8000 SHRA BKN020 FEW040CB BKN060

SAZS 16/01/2018 UTC

TAF SAZS 161100Z 1612/1712 VRB03KT CAVOK TX25/1619Z TN06/1709Z
BECMG 1614/1616 27015G25KT
BECMG 1623/1701 29010KT
BECMG 1710/1712 27015KT 9999 SCT020 SCT100

SCEL 16/01/2018 UTC

TAF SCEL 161010Z 1612/1712 VRB03KT CAVOK TX28/1619Z TN15/1710Z
BECMG 1614/1616 17008KT
BECMG 1618/1620 21015KT
BECMG 1700/1702 16006KT
BECMG 1706/1708 VRB02KT

SAWH 16/01/2018 UTC

TAF SAWH 161100Z 1612/1712 23010KT 9999 SCT035 BKN070 TX15/1618Z
TN04/1711Z
BECMG 1613/1615 25015KT 6000 SHRA SCT020 SCT030TCU OVC045
BECMG 1623/1701 32015KT -RADZ BKN020

Guam, Japan, Korea

The availability of aerodrome forecasts from overseas locations is dependent on the regular international exchange of data. Some locations may at times be absent. If this problem persists, please advise webav@bom.gov.au

 back to top

PGUA 16/01/2018 UTC

TAF PGUA 161000Z 1610/1716 07012G18KT 9999 SCT030 QNH2980INS
TEMPO 1701/1703 07015G20KT SCT050 TX29/1702Z TN23/1618Z

PGUM 16/01/2018 UTC

TAF PGUM 161123Z 1612/1718 07011KT P6SM SCT021

PGSN 16/01/2018 UTC

TAF PGSN 161123Z 1612/1712 09012KT P6SM SCT021 BKN110

PTRO 16/01/2018 UTC

TAF PTRO 161123Z 1612/1712 06007KT P6SM SCT015 BKN120 OVC300

RJOO

16/01/2018 UTC

TAF RJOO 161107Z 1612/1718 33004KT 9999 -SHRA FEW015 SCT030 BKN040
BECMG 1618/1620 07006KT TEMPO 1621/1703 3000 TSRA BR FEW005
BKN008 BKN020 FEW020CB BECMG 1703/1706 31006KT TEMPO
1706/1709 34015G25KT

RJOB 16/01/2018 UTC

TAF RJOB 161105Z 1612/1718 02005KT 8000 FEW015 SCT035 BECMG
1615/1617 0900 -SHRA FG FEW000 SCT005 BKN008 TEMPO
1617/1700 0500 SHRA FG FEW000 SCT001 BKN003 BECMG 1703/1706
31009KT 4000 -SHRA BR FEW002 SCT008 BKN015 BECMG 1706/1709
9999 NSW

RJGG 16/01/2018 UTC

TAF RJGG 161107Z 1612/1718 05006KT 9999 FEW020 SCT040 TEMPO
1621/1703 3000 RA BR FEW003 BKN005 TEMPO 1703/1709 4000
-SHRA BR FEW005 BKN008 BECMG 1709/1712 32025KT

RJCC 16/01/2018 UTC

TAF RJCC 161105Z 1612/1718 34004KT 9999 FEW025 BKN050 BECMG
1612/1614 18005KT BECMG 1615/1617 35008KT

RJSS 16/01/2018 UTC

TAF RJSS 161106Z 1612/1718 30003KT 9999 FEW030 TEMPO 1700/1703 4000
-RA BR FEW005 BKN008 BKN015 BECMG 1703/1706 06015KT TEMPO
1703/1712 3000 RA BR FEW005 BKN008 BKN015 TEMPO 1712/1718
1500 SHRASN BR FEW005 BKN008 BKN015

RJFK 16/01/2018 UTC

TAF RJFK 161108Z 1612/1718 11005KT 9999 -RA VA FEW020 BKN040 TEMPO
1615/1618 3000 SHRA BR FEW005 BKN008 BKN015 BECMG 1618/1620
30013KT TEMPO 1618/1621 1500 +TSRA BR FEW002 BKN005 BKN010
FEW020CB TEMPO 1621/1700 4000 -SHRA BR FEW005 BKN008
BKN015

RJAA 16/01/2018 UTC

TAF RJAA 161114Z 1612/1718 19005KT 6000 FEW010 BKN020 TEMPO
1616/1621 3000 BR FEW005 BKN008 BECMG 1706/1709 18016KT
TEMPO 1706/1709 18018G30KT 4000 -SHRA BR FEW005 BKN008
TEMPO 1709/1715 4000 -SHRA BR FEW003 BKN005 BECMG 1712/1715
32010KT

RJBB 16/01/2018 UTC

TAF RJBB 161106Z 1612/1718 19015KT 9999 FEW020 SCT045 TEMPO
1621/1703 21020G30KT 3000 TSRA BR FEW005 BKN008 BKN020
FEW020CB BECMG 1706/1709 30018KT TEMPO 1709/1712 30020G30KT
BECMG 1712/1715 33011KT

RJTT 16/01/2018 UTC

TAF RJTT 161112Z 1612/1718 25004KT 9999 FEW020 BKN040 BECMG
1616/1618 20015KT TEMPO 1622/1703 19024G34KT TEMPO
1703/1709 19028G40KT 4000 -SHRA BR FEW005 BKN008 TEMPO
1709/1712 19022G32KT 3000 SHRA BR FEW005 BKN008 BECMG
1712/1715 35013KT

RJFF 16/01/2018 UTC

TAF RJFF 161107Z 1612/1718 17017KT 9000 -SHRA FEW010 SCT020 BKN030
TEMPO 1612/1615 17018G28KT TEMPO 1615/1618 1500 +SHRA BR
FEW003 BKN008 BKN015 BECMG 1700/1703 31009KT TEMPO
1700/1709 4000 -SHRA BR FEW003 BKN008 BKN015 BECMG
1709/1712 15005KT

RJFT 16/01/2018 UTC

TAF RJFT 161124Z 1612/1718 20006KT 9999 FEW030 BKN050 TEMPO
1615/1617 4000 -SHRA BR TEMPO 1617/1620 0800 +SHRA FG
FEW001 SCT003 BKN005 TEMPO 1620/1703 2000 -SHRA BR FEW003
SCT005 BKN008 BECMG 1709/1712 09004KT

RJFU 16/01/2018 UTC

TAF RJFU 161114Z 1612/1718 15019KT 7000 -SHRA FEW008 SCT015 BKN025
TEMPO 1612/1614 17022G35KT 3000 SHRA BR TEMPO 1614/1617
19025G40KT 1500 +SHRA BR BECMG 1616/1618 28008KT TEMPO
1617/1621 3000 SHRA BR FEW005 BKN008 BKN015

ROAH 16/01/2018 UTC

TAF ROAH 161105Z 1612/1718 17010KT 9999 FEW025 SCT035 BECMG
1703/1706 24012KT BECMG 1706/1709 03012KT TEMPO 1706/1709
4000 SHRA

RKSS 16/01/2018 UTC

TAF RKSS 161700Z 1618/1724 33005KT 2500 BR FEW030 BKN150
TNM01/1622Z TX08/1706Z TNM02/1722Z
TEMPO 1619/1623 1400
BECMG 1702/1703 25005KT 3500 HZ
BECMG 1711/1712 30005KT 2200 BR
TEMPO 1715/1723 0800 FG BKN003
BECMG 1723/1724 FEW010 BKN025

RKSI 16/01/2018 UTC

TAF RKSI 161700Z 1618/1724 05008KT 3500 BR SCT030 BKN110
TN00/1621Z TX06/1706Z TN00/1721Z
TEMPO 1620/1623 02007KT 2500
TEMPO 1702/1706 15006KT BKN025 BKN110
BECMG 1707/1708 29007KT 6000 NSW
BECMG 1715/1716 33008KT 3500 BR BKN030

RKSM 16/01/2018 UTC

TAF RKSM 161100Z 1612/1718 33006KT 3000 BR OVC030 BECMG 1701/1702
33006KT 4800 BR SCT030 TNM01/1621Z TX07/1706Z

RKPK 16/01/2018 UTC

TAF RKPK 161700Z 1618/1724 33006KT 3200 -RA BR BKN015 OVC030
TN03/1621Z TX08/1705Z
BECMG 1622/1623 4800 SCT015 OVC030
BECMG 1703/1704 8000 NSW BKN030

RKPC 16/01/2018 UTC

TAF RKPC 161700Z 1618/1724 09008KT 6000 -RA FEW010 BKN025 OVC100
TN09/1620Z TX11/1705Z TN07/1720Z
BECMG 1620/1621 35010KT
BECMG 1623/1624 NSW
BECMG 1705/1706 FEW030 BKN150
BECMG 1713/1714 19005KT
BECMG 1722/1723 34010KT

Indonesia, Pakistan, Singapore, India, Sri Lanka, United Arab Emirates

The availability of aerodrome forecasts from overseas locations is dependent on the regular international exchange of data. Some locations may at times be absent. If this problem persists, please advise webav@bom.gov.au

 back to top

WIII 16/01/2018 UTC

TAF WIII 161700Z 1618/1800 26006KT 7000 SCT020
BECMG 1701/1703 9999

WSSS 16/01/2018 UTC

TAF WSSS 161700Z 1618/1800 36008KT 9999 FEW015 BKN140

VCBI 16/01/2018 UTC

TAF VCBI 161540Z 1618/1724 04010KT 9999 FEW018 TX31/1708Z
TN22/1700Z PROB30
TEMPO 1623/1702 6000

VECC 16/01/2018 UTC

TAF VECC 161100Z 1612/1718 00000KT 2200 HZ NSC
BECMG 1616/1618 1400 BR
BECMG 1700/1702 0800 FG
BECMG 1703/1705 36007KT 1600 BR
BECMG 1706/1708 3000 HZ FU
BECMG 1712/1714 00000KT 2200 HZ

VOMM 16/01/2018 UTC

TAF VOMM 161700Z 1618/1724 04005KT 5000 HZ FEW020 SCT100
BECMG 1621/1622 00000KT 3000 BR
TEMPO 1700/1703 1000 MIFG
BECMG 1705/1706 04010KT 5000 HZ
BECMG 1709/1710 6000
BECMG 1715/1716 5000 HZ
BECMG 1721/1722 00000KT 3000 BR

VOTV 16/01/2018 UTC

TAF VOTV 161700Z 1618/1724 VRB03KT 3000 HZ FEW015 TEMPO 1622/1702
2000 BR SCT015 SCT080 BECMG 1705/1706 27005KT 6000 BECMG 1715/1716
32005KT 4000 HZ TEMPO 1722/1724 12005KT 2000 BR FEW015 SCT090

VABB 16/01/2018 UTC

TAF COR VABB 161700Z 1618/1724 VRB03KT 2500 HZ FU NSC
BECMG 1621/1623 10005KT FEW100
BECMG 1704/1706 03005KT 3000 FU
BECMG 1710/1712 30006KT NSC
BECMG 1715/1717 05005KT
BECMG 1718/1720 18004KT

VAAH 16/01/2018 UTC

TAF VAAH 161100Z 1612/1718 02005KT 4000 FUHZ NSC BECMG 1701/1703
VRB03KT 2000 BRHZ BECMG 1704/1706 05007KT 5000 HZ FU BECMG
1712/1714 03003KT 4000 FU

VILK 16/01/2018 UTC

TAF VILK 161100Z 1612/1718 VRB02KT 2000 HZ NSC BECMG 1616/1618
VRB02KT 1500 BR BECMG 1722/1724 00000KT 0800 MIFG FG VV/// BECMG
1700/1702 0350 FG BECMG 1706/1708 35003KT 1500 BR MIFG NSC

VANP 16/01/2018 UTC

TAF VANP 161100Z 1612/1718 03005KT 4000 HZ NSC
BECMG 1618/1620 05005KT 3000 HZ
BECMG 1700/1702 03005KT 2000 HZ
BECMG 1704/1706 07005KT 4000 HZ

VRMM 16/01/2018 UTC

TAF VRMM 161700Z 1618/1724 08013KT 8000 FEW018 TEMPO 1619/1701
FEW019CB

VOHS 16/01/2018 UTC

TAF VOHS 161700Z 1618/1724 11005KT 5000 HZ NSC TEMPO 1623/1703
VRB03KT 1500 BR SCT010 BECMG 1705/1707 12010KT 6000 SCT015 BECMG
1715/1717 13005KT 5000 HZ NSC TEMPO 1722/1724 VRB03KT 3000 BR
FEW010

OPKC 16/01/2018 UTC

TAF OPKC 161530Z 1618/1724 27008G18KT 5000 HZ NSC TEMPO 1623/1703
VRB03KT 5000 FG VV /// BECMG 1718/1720 34010KT 3000 HZ NSC

OBBI 16/01/2018 UTC

TAF OBBI 161700Z 1618/1800 33015G25KT 9999 FEW030 BECMG 1703/1705
33015KT

OMAA 16/01/2018 UTC

TAF OMAA 161700Z 1618/1800 29011KT 8000 FEW025

OMDB 16/01/2018 UTC

TAF OMDB 161701Z 1618/1800 28010KT CAVOK
BECMG 1621/1623 21007KT
BECMG 1707/1709 27010KT
BECMG 1716/1718 20005KT

OOMS 16/01/2018 UTC

TAF OOMS 161700Z 1618/1800 22007KT 8000 NSC BECMG 1707/1709 35010KT
BECMG 1718/1720 VRB03KT

OMSJ 16/01/2018 UTC

TAF OMSJ 161701Z 1618/1800 27010KT CAVOK
BECMG 1619/1621 21007KT
BECMG 1708/1710 27012KT
BECMG 1716/1718 19005KT

Malawi, Mauritius, South Africa, Zambia, Zimbabwe

The availability of aerodrome forecasts from overseas locations is dependent on the regular international exchange of data. Some locations may at times be absent. If this problem persists, please advise webav@bom.gov.au

 back to top

FIMP 16/01/2018 UTC

TAF FIMP 161115Z 1612/1718 18020G35KT 8000 -SHRA FEW010 BKN015 BKN050
TEMPO 18035G50KT 4000 +SHRA FEW008 FEW013TCU BKN014 BKN045 PROB30
TEMPO 2000 SHRA/TSRA FEW006 FEW012CB BKN013 BKN040 BECMG 1702/1704
20045G65KT

FMEE 16/01/2018 UTC

TAF FMEE 161700Z 1618/1724 14015G25KT 9999 FEW030 SCT050 TEMPO
1618/1706 14020G35KT FEW020TCU BECMG 1621/1623 3500 RA BKN030 OVC100
TEMPO 1623/1724 1500 SHRA FEW015CB BKN015

FLKK 16/01/2018 UTC

TAF FLKK 161000Z 1612/1718 09005KT 9999 BKN030
PROB40 TEMPO 1612/1614 8000 TSRA FEW///CB BKN040
PROB30 TEMPO 1700/1701 08010KT 8000 -RA BKN020
BECMG 1712/1714 9000 TSRA FEW///CB BKN030

FWKI 16/01/2018 UTC

TAF FWKI 161500Z 1618/1724 16004KT 9999 TS FEW022CB SCT025 BKN080
TEMPO 1618/1623 VRB10G25KT 4000 TSRA FEW020CB BKN023 BKN070
BECMG 1700/1702 18006KT 9999 FEW///CB BKN080 BECMG 1703/1705
16010KT 9999 FEW015 SCT020 BKN080 TEMPO 1706/1711 VRB07G20KT
6000 RA FEW008 BKN018 BKN080

FAOR 16/01/2018 UTC

TAF FAOR 161600Z 1618/1724 04013KT CAVOK
BECMG 1703/1705 VRB05KT
BECMG 1710/1712 11006KT SCT040
PROB30 TEMPO 1713/1718 -TSRA FEW040CB
TX31/1714Z TN17/1703Z

FVHA

TAF not available.

FAWK 16/01/2018 UTC

TAF FAWK 160900Z 1610/1618 08008KT CAVOK
BECMG 1610/1612 36005KT
TX31/1613Z TN26/1618Z

FABL 16/01/2018 UTC

TAF FABL 161600Z 1618/1718 02015KT 9999 SCT065TCU
TEMPO 1618/1621 23020G35KT 5000 TSRA SCT055CB
BECMG 1619/1621 02008KT CAVOK
TX32/1713Z TN19/1703Z

FALE 16/01/2018 UTC

TAF FALE 161600Z 1618/1724 01008KT 9999 SCT020 BKN035
FM170800 05015G25KT CAVOK BECMG 1715/1717 01008KT SCT030
TX30/1712Z TN19/1703Z

YPCC 16/01/2018 UTC

TAF YPCC 161712Z 1618/1718
20010KT 9999 -SHRA SCT025
INTER 1704/1710 3000 SHRA BKN010
RMK
T 26 26 26 28 Q 1008 1006 1007 1008

United States (includes Hawaii) and Mexican emergency/alternates

The availability of aerodrome forecasts from overseas locations is dependent on the regular international exchange of data. Some locations may at times be absent. If this problem persists, please advise webav@bom.gov.au

 back to top

PHNL 16/01/2018 UTC

TAF PHNL 161505Z 1615/1718 34005KT P6SM FEW025 SCT040
FM162100 05012G19KT P6SM FEW025 SCT045
FM170500 04010KT P6SM FEW025 SCT045
FM171000 04011G18KT P6SM VCSH FEW025 SCT045

PHLI 16/01/2018 UTC

TAF PHLI 161504Z 1615/1712 34005KT P6SM SCT025 BKN035
TEMPO 1615/1618 BKN025
FM162000 04013KT P6SM FEW025 SCT035
FM170000 04015KT P6SM FEW025 SCT035
FM170600 04017KT P6SM VCSH SCT025 BKN035

PHOG 16/01/2018 UTC

TAF PHOG 161135Z 1612/1712 04010KT P6SM FEW025 SCT045
FM162000 04017G25KT P6SM FEW030 SCT045
FM170500 04012G19KT P6SM VCSH FEW030 SCT045
FM171000 04014G22KT P6SM VCSH FEW030 SCT045
AMD LTD TO VIS AND WIND TIL 161600

PHTO 16/01/2018 UTC

TAF PHTO 161300Z 1613/1712 24005KT P6SM VCSH SCT025 BKN045
TEMPO 1613/1614 -SHRA BKN025
FM162000 05008KT P6SM SCT025 SCT045
FM170500 24005KT P6SM VCSH SCT025 BKN045

PKMJ 16/01/2018 UTC

TAF PKMJ 161123Z 1612/1712 10012KT P6SM VCSH SCT015 SCT300
TEMPO 1612/1615 3SM SHRA SCT014 BKN025 OVC050

KLAX 16/01/2018 UTC

TAF KLAX 161616Z 1616/1718 00000KT 2SM BCFG BR SCT002 SCT080 BKN120
FM161645 VRB03KT 3SM BR SCT007
FM161800 VRB03KT P6SM SCT010
FM162000 26010KT P6SM BKN200
FM170300 VRB03KT P6SM SCT200

KONT 16/01/2018 UTC

TAF KONT 161123Z 1612/1718 VRB04KT P6SM BKN200
FM162100 26009KT P6SM SCT200
FM170200 VRB05KT P6SM BKN200

KPMD 16/01/2018 UTC

TAF KPMD 161135Z 1612/1712 VRB03KT P6SM BKN200
FM162000 28008KT P6SM BKN200
FM170500 VRB03KT P6SM SCT200

KSAN 16/01/2018 UTC

TAF KSAN 161521Z 1615/1718 30007KT P6SM FEW003 BKN200
TEMPO 1615/1617 6SM BR SCT003 BKN006

KLAS 16/01/2018 UTC

TAF AMD KLAS 161443Z 1615/1718 22005KT P6SM BKN200
FM161600 VRB04KT P6SM BKN200
FM162000 09005KT P6SM BKN250
FM170300 22005KT P6SM SCT250
FM171600 VRB04KT P6SM FEW250

KOAK 16/01/2018 UTC

TAF KOAK 161120Z 1612/1718 11007KT 5SM -RA OVC015
FM161500 24005KT P6SM BKN020
FM161800 VRB03KT P6SM SCT025 BKN050
FM162100 28004KT P6SM SCT050 BKN150
FM170300 VRB03KT P6SM SCT150

KSFO 16/01/2018 UTC

TAF KSFO 161502Z 1615/1718 00000KT 6SM BR FEW008 OVC017
FM161800 27005KT P6SM BKN020
FM162000 27004KT P6SM SCT025 BKN050
FM162100 33004KT P6SM SCT050 BKN150
FM170400 05004KT P6SM SCT150

KSMF 16/01/2018 UTC

TAF KSMF 161512Z 1615/1712 32007KT 2SM BR OVC003
TEMPO 1616/1618 4SM BR OVC010
FM162200 32004KT 5SM BR OVC025
FM170200 VRB02KT 1 1/2SM BR OVC015

KSCK 16/01/2018 UTC

TAF KSCK 161703Z 1617/1712 34005KT 2SM BR SCT005 BKN080
TEMPO 1618/1621 4SM BR OVC015
FM162200 32005KT 3SM BR OVC015
FM170300 VRB03KT 1/2SM FG OVC001

KFAT 16/01/2018 UTC

TAF AMD KFAT 161343Z 1614/1712 VRB05KT 2SM BR OVC002
TEMPO 1614/1618 1/2SM FG OVC001
FM161900 33007KT 4SM HZ SCT100 BKN200
FM162200 33008KT 5SM HZ SCT150 BKN250

KJFK 16/01/2018 UTC

TAF KJFK 161534Z 1616/1718 12004KT P6SM SCT015 BKN030
FM162000 17004KT P6SM BKN020 BKN030 PROB30 1702/1705 6SM -SN
FM170500 VRB04KT 5SM -SN OVC010
FM170800 06006KT 2SM -RASN OVC008
FM171400 34009KT 1 1/2SM -SN BR OVC008

KPHL 16/01/2018 UTC

TAF KPHL 161401Z 1614/1718 09005KT P6SM SCT025 OVC040
TEMPO 1614/1616 OVC025
FM161600 15004KT P6SM SCT015 BKN035
FM170100 07004KT P6SM OVC015
FM170500 02004KT 1SM -SN OVC005
FM171000 34010KT 2SM -SN OVC008
FM171400 31012G22KT P6SM BKN025

KPIT 16/01/2018 UTC

TAF KPIT 161510Z 1615/1718 20005KT 2SM -SN SCT010 OVC035
FM161800 24007KT 6SM -SN SCT015 BKN025
FM170100 28010KT P6SM OVC025

KDEN 16/01/2018 UTC

TAF KDEN 161459Z 1615/1718 18008KT P6SM FEW220
FM161800 14008KT P6SM FEW220
FM162200 09008KT P6SM FEW220
FM170200 19011KT P6SM SKC
FM171600 24007KT P6SM FEW200

KMCI 16/01/2018 UTC

TAF KMCI 161120Z 1612/1712 33012KT P6SM SKC
FM161300 31010KT P6SM BKN022
FM162000 31005KT P6SM SCT025
FM170100 VRB05KT P6SM SKC

KDFW 16/01/2018 UTC

TAF KDFW 161456Z 1615/1718 36016KT P6SM BKN110
FM170000 01007KT P6SM SKC

KAUS 16/01/2018 UTC

TAF KAUS 161317Z 1613/1718 36022G32KT P6SM -FZRAPL BKN035 OVC045
FM161500 36022G32KT P6SM -PLSN BKN035 OVC045
FM161900 01018G28KT P6SM OVC060
FM170300 01008KT P6SM SCT080

KELP 16/01/2018 UTC

TAF KELP 161131Z 1612/1712 07010KT P6SM FEW040 BKN250
FM162100 11010KT P6SM SCT040 BKN250
FM170600 07004KT P6SM FEW040 BKN250

KIAH 16/01/2018 UTC

TAF KIAH 161512Z 1615/1718 35015G24KT 5SM -FZRAPL BR OVC015
TEMPO 1617/1619 3SM -PLSN BR OVC020
FM161900 36017G27KT 5SM -SNPL BR OVC015
FM162000 36016KT P6SM -SN BKN028 OVC050
FM170000 35012KT P6SM OVC050
FM170700 35006KT P6SM SKC
FM171500 02010KT P6SM SKC

KSAT 16/01/2018 UTC

TAF KSAT 161319Z 1613/1718 36022G32KT P6SM -FZRAPL OVC035
FM161700 36022G32KT P6SM -PLSN OVC035
FM161900 36018G28KT P6SM OVC060
FM170200 36007KT P6SM BKN080

KTUS 16/01/2018 UTC

TAF KTUS 161120Z 1612/1712 14008KT P6SM OVC250
FM161600 12015G24KT P6SM SCT150 BKN250
FM162200 09013KT P6SM SCT150 BKN250
FM170300 13010KT P6SM SCT250

MMCU 16/01/2018 UTC

TAF MMCU 160533Z 1606/1706 16005KT P6SM SKC
FM161800 16010G20KT P6SM SCT030 SCT200
FM170400 16010KT 6SM HZ SCT200

MMHO 16/01/2018 UTC

TAF MMHO 160458Z 1606/1706 00000KT P6SM SKC
FM161800 24010KT P6SM SKC
FM170400 24050KT P6SM SKC

MMLT 16/01/2018 UTC

TAF MMLT 161657Z 1618/1718 02012KT P6SM SCT250
FM170600 04010KT P6SM SCT250

MMSD 16/01/2018 UTC

TAF MMSD 161657Z 1618/1718 00000KT P6SM SKC
FM162000 14015KT P6SM SCT250
FM170100 34010KT P6SM SCT250

Papua New Guinea, Southwest Pacific

The availability of aerodrome forecasts from overseas locations is dependent on the regular international exchange of data. Some locations may at times be absent. If this problem persists, please advise webav@bom.gov.au

 back to top

NWWW 16/01/2018 UTC

TAF NWWW 161700Z 1618/1718 VRB02KT 9999 SCT030 BECMG 1622/1624 15010KT TEMPO 1700/1710 4000 SHRA SCT020CB PROB40 TEMPO 1702/1706 1000 TSRA BKN014 BECMG 1706/1708 VRB02KT

NFFN 16/01/2018 UTC

TAF AMD NFFN 161521Z 1615/1712
07008KT 9999 -SHRA FEW020 SCT045 BKN100
PROB40 TEMPO 1702/1706 5000 TSRA FEW018CB

NFNA 16/01/2018 UTC

TAF NFNA 161106Z 1612/1712
VRB03KT 9999 -SHRA SCT018 BKN045 OVC100
TEMPO 1614/1618 3000 TSRA BKN015 FEW017CB
PROB40 TEMPO 1618/1706 5000 TSRA BKN015 FEW017CB

NFTF 16/01/2018 UTC

TAF NFTF 161105Z 1612/1712
VRB03KT 9999 -SHRA SCT010 BKN016 BKN100
PROB40 TEMPO 1612/1706 5000 TSRA BKN009 FEW016CB

NSTU 16/01/2018 UTC

TAF NSTU 161402Z 1614/1712 11011KT P6SM VCSH SCT015 SCT040 BKN100
TEMPO 1614/1616 VRB15G25KT 4SM +TSRA BR BKN015CB

NVVV 16/01/2018 UTC

TAF NVVV 161600Z 1618/1718 VRB02KT 9999 SCT020

NCRG 16/01/2018 UTC

TAF NCRG 161105Z 1612/1712
07008KT 9999 SCT020 BKN100

NTAA 16/01/2018 UTC

TAF NTAA 161100Z 1612/1718 VRB03KT 9999 FEW023 BECMG 1618/1620
04013KT TEMPO 1622/1702 22010KT

NTTG

TAF not available.

NTTO

TAF not available.

NSFA 16/01/2018 UTC

TAF NSFA 161105Z 1612/1712
10008KT 9999 SCT020 BKN100
PROB30 TEMPO 1616/1624 5000 TSRA FEW018CB

ANYN

TAF not available.

AGGH 16/01/2018 UTC

TAF AGGH 161115Z 1612/1712 VRB03KT 9999 FEW016

FM162300 09010KT SCT019

T 24 23 23 26 Q 1008 1006 1006 1008

AGGM 16/01/2018 UTC

TAF AGGM 161115Z 1612/1712 VRB03KT 9999 FEW016

FM162300 14010KT SCT019

Q 1007 1005 1005 1007

AGGN 16/01/2018 UTC

TAF AGGN 161115Z 1612/1712 VRB03KT 9999 FEW016

FM162300 16012KT SCT019

Q 1007 1005 1005 1007

AYPY

TAF not available.

AYNZ

TAF not available.

AYMD

TAF not available.

AYMH

TAF not available.

AYTA

TAF not available.

PKMJ 16/01/2018 UTC

TAF PKMJ 161123Z 1612/1712 10012KT P6SM VCSH SCT015 SCT300
TEMPO 1612/1615 3SM SHRA SCT014 BKN025 OVC050

NGTA 16/01/2018 UTC

TAF NGTA 161107Z 1612/1712
10025KT 9999 SCT019 SCT100

PTRO 16/01/2018 UTC

TAF PTRO 161123Z 1612/1712 06007KT P6SM SCT015 BKN120 OVC300

YLHI 16/01/2018 UTC

TAF YLHI 161708Z 1618/1718
23025G35KT 9999 -SHRA SCT030 BKN050
FM162200 23025G35KT 9999 -SHRA SCT020 BKN030
INTER 1618/1718 4000 SHRA BKN015
RMK FM161800 MOD/SEV TURB BLW 5000FT
T 20 22 23 23 Q 1007 1009 1009 1009

YSNF 16/01/2018 UTC

TAF YSNF 161708Z 1618/1718
32006KT 9999 -SHRA FEW020
FM162000 30012KT 9999 -SHRA FEW010 SCT020
FM170800 30006KT 9999 -SHRA SCT010 BKN020
RMK
T 21 24 24 25 Q 1009 1011 1012 1011

Indonesia, Timor Leste, Papua New Guinea

The availability of aerodrome forecasts from overseas locations is dependent on the regular international exchange of data. Some locations may at times be absent. If this problem persists, please advise webav@bom.gov.au

 back to top

WAAA 16/01/2018 UTC

TAF COR WAAA 161700Z 1618/1800 09004KT 6000 -RA SCT019 BKN100
BECMG 1701/1703 30008KT
BECMG 1711/1713 10004KT

WAMM 16/01/2018 UTC

TAF WAMM 161700Z 1618/1724 02002KT 9999 SCT022
PROB40 TEMPO 1618/1622 7000 -RA SCT018
BECMG 1623/1701 25008KT
PROB40 TEMPO 1706/1710 10003KT 6000 -RA FEW017CB SCT018

WAMP

TAF not available.

WAJJ 16/01/2018 UTC

TAF WAJJ 161700Z 1618/1718 30004KT 8000 SCT014
PROB40 TEMPO 1618/1622 5000 -RA SCT010
BECMG 1622/1624 30007KT 9999 SCT014
TEMPO 1602/1606 FEW013CB

WAPP 16/01/2018 UTC

TAF WAPP 161700Z 1618/1718 34008KT 9999 SCT017
TEMPO 1618/1621 FEW016CB

WABB 16/01/2018 UTC

TAF WABB 161700Z 1618/1800 00000KT 9000 SCT018
TEMPO 1618/1623 7000 RA FEW017CB BKN019
BECMG 1623/1700 22005KT

WPDL 16/01/2018 UTC

TAF WPDL 160718Z 1608/1620
27010KT 9999 SCT030
FM160900 15005KT CAVOK
PROB30 TEMPO 1608/1609 VRB20G35KT 1000 TSRA BKN010 SCT020CB
RMK
T 30 27 27 26 Q 1004 1006 1007 1006

WATT 16/01/2018 UTC

TAF WATT 161700Z 1618/1718 35005KT 8000 BKN017
TEMPO 1704/1708 22012KT 4000 -RA

WIII 16/01/2018 UTC

TAF WIII 161700Z 1618/1800 26006KT 7000 SCT020
BECMG 1701/1703 9999

WIHH 16/01/2018 UTC

TAF WIHH 161700Z 1618/1718 25006KT 7000 SCT022
BECMG 1701/1703 28012KT 8000 SCT018
TEMPO 1705/1709 5000 -RA FEW018CB SCT015

WIMM 16/01/2018 UTC

TAF WIMM 161700Z 1618/1718 22004KT 2500 BR SCT018
BECMG 1702/1704 35010KT 9000 NSW
BECMG 1710/1712 VRB05KT 4500 HZ FEW016CB FEW017

WARR 16/01/2018 UTC

TAF WARR 161700Z 1618/1718 28005KT 6000 SCT020
TEMPO 1620/1700 5000 HZ
BECMG 1701/1703 26010KT 9999 NSW
TEMPO 1706/1710 SCT020CB

WADD 16/01/2018 UTC

TAF WADD 161700Z 1618/1718 29012KT 9999 FEW015CB
TEMPO 1618/1622 5000 RA FEW013CB BKN015
TEMPO 1712/1716 5000 RA FEW013CB BKN015

AYPY

TAF not available.

AYNZ

TAF not available.

AYMH

TAF not available.

AYMD

TAF not available.

AYHK

TAF not available.

AYTK

TAF not available.

AYVN

TAF not available.

AYWK

TAF not available.

AYGA

TAF not available.

AYDU

TAF not available.

AYMS

TAF not available.

AYRB

TAF not available.

AYTB

TAF not available.

AYKI

TAF not available.

AYKT

TAF not available.

AYBK

TAF not available.

AYKM

TAF not available.

AYKY

TAF not available.

AYMO

TAF not available.

AYKV

TAF not available.

Accessing this Service

By entering this site, you acknowledge that this information is produced solely for use by the aviation industry, and you are aware that any information for the purposes of flight planning should be obtained from Airservices Australia.